createdAt,value
2018-11-26T00:00:57.910Z,20.47
2018-11-26T00:03:28.258Z,20.70
2018-11-26T00:05:57.296Z,20.60
2018-11-26T00:08:26.409Z,21.27
2018-11-26T00:11:10.715Z,21.23
2018-11-26T00:13:39.741Z,21.70
2018-11-26T00:16:08.789Z,21.17
2018-11-26T00:18:38.084Z,21.53
2018-11-26T00:21:07.161Z,22.00
2018-11-26T00:23:36.263Z,21.07
2018-11-26T00:26:05.332Z,21.73
2018-11-26T00:28:34.931Z,20.30
2018-11-26T00:31:03.982Z,22.00
2018-11-26T00:33:34.270Z,21.30
2018-11-26T00:36:03.340Z,22.67
2018-11-26T00:38:32.769Z,21.30
2018-11-26T00:41:01.850Z,22.27
2018-11-26T00:43:31.300Z,21.40
2018-11-26T00:46:00.483Z,21.37
2018-11-26T00:48:29.554Z,20.13
2018-11-26T00:50:58.574Z,21.10
2018-11-26T00:53:27.715Z,19.40
2018-11-26T00:55:56.753Z,19.67
2018-11-26T00:58:25.829Z,18.73
2018-11-26T01:00:54.918Z,19.27
2018-11-26T01:03:23.979Z,18.60
2018-11-26T01:05:53.014Z,18.17
2018-11-26T01:08:22.030Z,18.43
2018-11-26T01:10:51.103Z,18.33
2018-11-26T01:13:20.661Z,17.63
2018-11-26T01:15:49.697Z,18.63
2018-11-26T01:18:19.811Z,19.30
2018-11-26T01:20:49.701Z,18.03
2018-11-26T01:23:18.717Z,17.77
2018-11-26T01:25:48.754Z,19.20
2018-11-26T01:28:17.762Z,17.90
2018-11-26T01:30:46.851Z,18.70
2018-11-26T01:33:16.790Z,17.83
2018-11-26T01:35:45.865Z,18.67
2018-11-26T01:38:14.873Z,18.20
2018-11-26T01:40:49.450Z,17.23
2018-11-26T01:43:18.698Z,17.47
2018-11-26T01:45:48.117Z,18.03
2018-11-26T01:48:17.188Z,17.87
2018-11-26T01:50:46.240Z,19.57
2018-11-26T01:53:15.297Z,17.40
2018-11-26T01:55:44.332Z,16.60
2018-11-26T01:58:13.393Z,16.50
2018-11-26T02:00:42.468Z,17.10
2018-11-26T02:03:11.561Z,17.50
2018-11-26T02:05:40.609Z,17.50
2018-11-26T02:08:10.115Z,16.80
2018-11-26T02:10:39.916Z,17.60
2018-11-26T02:13:09.056Z,17.13
2018-11-26T02:15:40.615Z,16.97
2018-11-26T02:18:10.390Z,16.97
2018-11-26T02:20:39.553Z,17.03
2018-11-26T02:23:09.951Z,16.90
2018-11-26T02:25:39.401Z,17.60
2018-11-26T02:28:08.441Z,17.20
2018-11-26T02:30:37.464Z,17.40
2018-11-26T02:33:06.488Z,17.67
2018-11-26T02:35:35.638Z,17.10
2018-11-26T02:38:07.880Z,18.27
2018-11-26T02:40:36.903Z,18.13
2018-11-26T02:43:05.983Z,17.37
2018-11-26T02:45:35.650Z,17.57
2018-11-26T02:48:05.107Z,17.70
2018-11-26T02:50:34.104Z,18.13
2018-11-26T02:53:03.873Z,17.63
2018-11-26T02:55:32.921Z,18.07
2018-11-26T02:58:01.954Z,17.73
2018-11-26T03:00:31.376Z,18.30
2018-11-26T03:03:00.463Z,18.43
2018-11-26T03:05:30.400Z,17.63
2018-11-26T03:07:59.442Z,18.20
2018-11-26T03:10:28.490Z,17.80
2018-11-26T03:12:57.548Z,19.60
2018-11-26T03:15:26.591Z,18.27
2018-11-26T03:17:55.620Z,19.27
2018-11-26T03:20:24.675Z,18.27
2018-11-26T03:22:53.861Z,19.30
2018-11-26T03:25:23.788Z,18.87
2018-11-26T03:27:54.211Z,18.10
2018-11-26T03:30:23.450Z,18.50
2018-11-26T03:32:52.536Z,19.40
2018-11-26T03:35:21.560Z,19.10
2018-11-26T03:37:51.559Z,18.80
2018-11-26T03:40:20.543Z,18.60
2018-11-26T03:42:49.578Z,18.03
2018-11-26T03:45:18.873Z,19.33
2018-11-26T03:47:48.448Z,19.13
2018-11-26T03:50:17.536Z,19.73
2018-11-26T03:52:46.947Z,20.23
2018-11-26T03:55:16.656Z,19.77
2018-11-26T03:57:45.730Z,19.50
2018-11-26T04:00:16.384Z,20.90
2018-11-26T04:02:46.031Z,21.30
2018-11-26T04:05:15.093Z,20.23
2018-11-26T04:07:44.228Z,21.50
2018-11-26T04:10:14.048Z,21.57
2018-11-26T04:12:43.113Z,21.37
2018-11-26T04:15:14.731Z,22.10
2018-11-26T04:17:43.791Z,22.63
2018-11-26T04:20:12.980Z,21.93
2018-11-26T04:22:41.996Z,24.23
2018-11-26T04:25:11.010Z,22.80
2018-11-26T04:27:40.416Z,22.10
2018-11-26T04:30:11.439Z,23.43
2018-11-26T04:32:40.827Z,23.63
2018-11-26T04:35:12.377Z,22.17
2018-11-26T04:37:41.390Z,23.37
2018-11-26T04:40:10.747Z,23.00
2018-11-26T04:42:40.110Z,22.57
2018-11-26T04:45:10.686Z,22.40
2018-11-26T04:47:39.824Z,21.30
2018-11-26T04:50:10.428Z,21.33
2018-11-26T04:52:39.547Z,21.40
2018-11-26T04:55:10.195Z,22.13
2018-11-26T04:57:42.537Z,20.93
2018-11-26T05:00:13.615Z,22.97
2018-11-26T05:02:42.803Z,22.00
2018-11-26T05:05:13.090Z,22.40
2018-11-26T05:07:42.148Z,22.13
2018-11-26T05:10:14.165Z,20.67
2018-11-26T05:12:43.239Z,22.10
2018-11-26T05:15:13.911Z,22.17
2018-11-26T05:17:42.931Z,22.67
2018-11-26T05:20:13.741Z,22.47
2018-11-26T05:22:42.985Z,22.83
2018-11-26T05:25:12.859Z,22.33
2018-11-26T05:27:41.862Z,22.53
2018-11-26T05:30:12.802Z,22.67
2018-11-26T05:32:42.144Z,22.23
2018-11-26T05:35:12.169Z,23.77
2018-11-26T05:37:41.310Z,23.17
2018-11-26T05:40:13.935Z,23.67
2018-11-26T05:42:43.541Z,23.00
2018-11-26T05:45:13.889Z,24.60
2018-11-26T05:47:43.021Z,24.67
2018-11-26T05:50:13.086Z,24.40
2018-11-26T05:52:42.374Z,25.53
2018-11-26T05:55:14.606Z,25.87
2018-11-26T05:57:44.269Z,24.87
2018-11-26T06:00:17.731Z,24.17
2018-11-26T06:02:46.757Z,23.60
2018-11-26T06:05:15.814Z,24.27
2018-11-26T06:07:44.888Z,82.43
2018-11-26T06:10:14.002Z,26.40
2018-11-26T06:12:44.422Z,24.47
2018-11-26T06:15:13.834Z,24.27
2018-11-26T06:17:42.888Z,24.43
2018-11-26T06:20:13.797Z,24.97
2018-11-26T06:22:44.155Z,24.23
2018-11-26T06:25:15.428Z,23.47
2018-11-26T06:27:44.651Z,24.67
2018-11-26T06:30:14.976Z,24.37
2018-11-26T06:32:44.245Z,25.53
2018-11-26T06:35:17.528Z,24.60
2018-11-26T06:37:46.677Z,25.10
2018-11-26T06:40:16.142Z,24.77
2018-11-26T06:42:45.744Z,25.43
2018-11-26T06:45:17.982Z,25.47
2018-11-26T06:47:47.166Z,26.23
2018-11-26T06:50:17.290Z,27.83
2018-11-26T06:52:46.620Z,26.00
2018-11-26T06:55:18.676Z,26.37
2018-11-26T06:57:47.797Z,24.70
2018-11-26T07:00:18.655Z,26.33
2018-11-26T07:02:47.776Z,24.73
2018-11-26T07:05:19.208Z,25.53
2018-11-26T07:07:48.644Z,25.20
2018-11-26T07:10:18.831Z,24.30
2018-11-26T07:12:47.944Z,26.27
2018-11-26T07:15:18.647Z,25.90
2018-11-26T07:17:48.633Z,25.03
2018-11-26T07:20:19.676Z,25.57
2018-11-26T07:22:48.841Z,25.27
2018-11-26T07:25:19.365Z,25.87
2018-11-26T07:27:50.880Z,24.70
2018-11-26T07:30:22.495Z,25.80
2018-11-26T07:32:51.732Z,24.53
2018-11-26T07:35:20.790Z,24.47
2018-11-26T07:37:49.938Z,24.93
2018-11-26T07:40:20.781Z,24.53
2018-11-26T07:43:01.197Z,25.13
2018-11-26T07:45:30.267Z,22.57
2018-11-26T07:47:59.274Z,24.20
2018-11-26T07:50:28.294Z,22.60
2018-11-26T07:52:57.319Z,23.83
2018-11-26T07:55:26.947Z,25.53
2018-11-26T07:57:56.007Z,23.67
2018-11-26T08:00:25.050Z,23.77
2018-11-26T08:02:55.329Z,23.50
2018-11-26T08:05:24.690Z,22.37
2018-11-26T08:07:53.770Z,23.03
2018-11-26T08:10:23.810Z,22.77
2018-11-26T08:12:53.879Z,22.40
2018-11-26T08:15:26.492Z,22.20
2018-11-26T08:17:55.717Z,22.53
2018-11-26T08:20:24.765Z,22.20
2018-11-26T08:22:53.807Z,21.50
2018-11-26T08:25:23.914Z,22.00
2018-11-26T08:27:53.174Z,21.47
2018-11-26T08:30:25.810Z,22.73
2018-11-26T08:32:56.012Z,22.70
2018-11-26T08:35:25.145Z,21.47
2018-11-26T08:37:59.524Z,22.40
2018-11-26T08:40:29.873Z,22.27
2018-11-26T08:43:11.797Z,23.13
2018-11-26T08:45:47.454Z,23.33
2018-11-26T08:48:30.822Z,20.90
2018-11-26T08:51:01.315Z,20.70
2018-11-26T08:53:30.718Z,20.37
2018-11-26T08:55:59.914Z,19.47
2018-11-26T08:58:28.948Z,20.83
2018-11-26T09:01:05.956Z,19.83
2018-11-26T09:03:36.476Z,17.17
2018-11-26T09:06:06.008Z,28.27
2018-11-26T09:08:36.553Z,17.90
2018-11-26T09:11:07.829Z,17.30
2018-11-26T09:13:37.066Z,17.53
2018-11-26T09:16:06.546Z,16.60
2018-11-26T09:18:36.456Z,15.40
2018-11-26T09:21:05.632Z,15.53
2018-11-26T09:23:34.750Z,16.20
2018-11-26T09:26:03.914Z,14.80
2018-11-26T09:28:32.914Z,16.50
2018-11-26T09:31:02.303Z,14.53
2018-11-26T09:33:31.562Z,15.37
2018-11-26T09:36:03.202Z,14.43
2018-11-26T09:38:32.904Z,14.73
2018-11-26T09:41:02.014Z,13.83
2018-11-26T09:43:31.034Z,14.93
2018-11-26T09:46:00.081Z,15.10
2018-11-26T09:48:29.348Z,14.63
2018-11-26T09:50:58.834Z,14.07
2018-11-26T09:53:27.874Z,13.17
2018-11-26T09:55:56.952Z,12.93
2018-11-26T09:58:26.026Z,14.10
2018-11-26T10:00:55.903Z,13.10
2018-11-26T10:03:24.938Z,12.80
2018-11-26T10:05:54.831Z,13.10
2018-11-26T10:08:23.870Z,11.53
2018-11-26T10:10:52.954Z,14.07
2018-11-26T10:13:21.964Z,12.53
2018-11-26T10:15:50.989Z,11.93
2018-11-26T10:18:20.074Z,11.47
2018-11-26T10:20:49.158Z,11.23
2018-11-26T10:23:18.177Z,10.80
2018-11-26T10:25:47.191Z,11.67
2018-11-26T10:28:16.235Z,10.90
2018-11-26T10:30:45.264Z,10.47
2018-11-26T10:33:14.785Z,10.87
2018-11-26T10:35:43.486Z,10.67
2018-11-26T10:38:13.548Z,11.37
2018-11-26T10:40:42.619Z,10.90
2018-11-26T10:43:12.752Z,9.00
2018-11-26T10:45:41.836Z,9.23
2018-11-26T10:48:10.919Z,9.03
2018-11-26T10:50:40.179Z,8.73
2018-11-26T10:53:09.630Z,12.23
2018-11-26T10:55:38.998Z,9.23
2018-11-26T10:58:08.066Z,10.23
2018-11-26T11:00:38.923Z,8.73
2018-11-26T11:03:08.768Z,9.40
2018-11-26T11:05:38.003Z,9.20
2018-11-26T11:08:07.986Z,8.40
2018-11-26T11:10:37.339Z,8.00
2018-11-26T11:13:07.130Z,9.53
2018-11-26T11:15:37.155Z,9.73
2018-11-26T11:18:07.692Z,8.40
2018-11-26T11:20:36.891Z,7.90
2018-11-26T11:23:07.061Z,8.57
2018-11-26T11:25:36.473Z,8.70
2018-11-26T11:28:06.134Z,8.80
2018-11-26T11:30:36.721Z,8.30
2018-11-26T11:35:36.159Z,8.77
2018-11-26T11:38:05.649Z,9.13
2018-11-26T11:40:34.844Z,8.60
2018-11-26T11:43:05.528Z,8.67
2018-11-26T11:45:34.707Z,8.80
2018-11-26T11:48:05.068Z,9.03
2018-11-26T11:50:34.151Z,10.07
2018-11-26T11:53:03.555Z,8.57
2018-11-26T11:55:32.644Z,10.40
2018-11-26T11:58:03.249Z,9.33
2018-11-26T12:00:36.060Z,8.73
2018-11-26T12:03:08.876Z,9.43
2018-11-26T12:05:37.913Z,9.50
2018-11-26T12:08:07.934Z,9.30
2018-11-26T12:10:37.014Z,10.37
2018-11-26T12:13:07.887Z,10.33
2018-11-26T12:15:38.509Z,9.87
2018-11-26T12:18:07.951Z,9.27
2018-11-26T12:20:37.153Z,11.00
2018-11-26T12:23:06.669Z,9.70
2018-11-26T12:25:35.743Z,9.87
2018-11-26T12:28:04.955Z,9.50
2018-11-26T12:30:35.769Z,10.30
2018-11-26T12:33:05.277Z,10.07
2018-11-26T12:35:35.095Z,9.73
2018-11-26T12:38:04.661Z,10.17
2018-11-26T12:40:33.834Z,9.63
2018-11-26T12:43:03.796Z,10.63
2018-11-26T12:45:34.180Z,11.20
2018-11-26T12:48:03.476Z,10.27
2018-11-26T12:50:32.591Z,10.97
2018-11-26T12:53:01.709Z,10.93
2018-11-26T12:55:30.790Z,11.73
2018-11-26T12:57:59.944Z,11.43
2018-11-26T13:00:30.039Z,11.03
2018-11-26T13:03:00.549Z,12.13
2018-11-26T13:05:29.963Z,10.77
2018-11-26T13:07:59.082Z,12.37
2018-11-26T13:10:28.504Z,10.80
2018-11-26T13:12:57.550Z,11.60
2018-11-26T13:15:27.645Z,11.83
2018-11-26T13:17:56.719Z,11.97
2018-11-26T13:20:28.752Z,10.63
2018-11-26T13:22:57.883Z,11.10
2018-11-26T13:25:28.887Z,10.63
2018-11-26T13:27:59.370Z,10.30
2018-11-26T13:30:40.879Z,11.17
2018-11-26T13:33:11.886Z,11.40
2018-11-26T13:35:41.303Z,11.67
2018-11-26T13:38:10.626Z,12.77
2018-11-26T13:40:39.803Z,11.67
2018-11-26T13:43:12.313Z,11.33
2018-11-26T13:45:46.190Z,10.90
2018-11-26T13:48:16.746Z,11.13
2018-11-26T13:50:55.465Z,10.73
2018-11-26T13:53:25.142Z,10.00
2018-11-26T13:55:54.339Z,11.10
2018-11-26T13:58:24.015Z,10.87
2018-11-26T14:00:53.069Z,12.70
2018-11-26T14:03:23.331Z,12.10
2018-11-26T14:05:53.201Z,10.70
2018-11-26T14:08:22.275Z,11.87
2018-11-26T14:10:51.458Z,12.43
2018-11-26T14:13:21.857Z,12.00
2018-11-26T14:15:51.116Z,11.07
2018-11-26T14:18:20.132Z,11.90
2018-11-26T14:20:49.210Z,11.30
2018-11-26T14:23:18.723Z,11.37
2018-11-26T14:25:48.113Z,12.10
2018-11-26T14:28:17.139Z,11.30
2018-11-26T14:30:47.903Z,11.97
2018-11-26T14:33:16.935Z,12.23
2018-11-26T14:35:45.996Z,12.03
2018-11-26T14:38:15.234Z,12.23
2018-11-26T14:40:49.686Z,13.47
2018-11-26T14:43:18.713Z,13.00
2018-11-26T14:45:47.780Z,13.37
2018-11-26T14:48:18.110Z,12.50
2018-11-26T14:50:47.176Z,12.23
2018-11-26T14:53:16.974Z,12.30
2018-11-26T14:55:46.047Z,12.13
2018-11-26T14:58:15.141Z,11.83
2018-11-26T15:00:44.307Z,11.07
2018-11-26T15:03:13.330Z,12.07
2018-11-26T15:05:42.403Z,11.10
2018-11-26T15:08:11.956Z,10.63
2018-11-26T15:10:41.259Z,11.40
2018-11-26T15:13:10.259Z,12.27
2018-11-26T15:15:39.426Z,11.83
2018-11-26T15:18:08.443Z,12.33
2018-11-26T15:20:37.462Z,12.00
2018-11-26T15:23:06.824Z,13.03
2018-11-26T15:25:36.419Z,12.43
2018-11-26T15:28:10.194Z,12.00
2018-11-26T15:30:39.212Z,11.40
2018-11-26T15:33:08.557Z,11.40
2018-11-26T15:35:37.669Z,11.83
2018-11-26T15:38:06.857Z,12.10
2018-11-26T15:40:36.105Z,13.37
2018-11-26T15:43:06.011Z,13.17
2018-11-26T15:45:35.343Z,12.43
2018-11-26T15:48:07.524Z,12.53
2018-11-26T15:50:36.589Z,13.47
2018-11-26T15:53:06.793Z,12.37
2018-11-26T15:55:35.915Z,13.40
2018-11-26T15:58:06.003Z,13.13
2018-11-26T16:00:35.173Z,14.57
2018-11-26T16:03:04.291Z,13.73
2018-11-26T16:05:33.490Z,14.93
2018-11-26T16:08:06.827Z,14.43
2018-11-26T16:10:35.884Z,13.77
2018-11-26T16:13:06.590Z,17.27
2018-11-26T16:15:38.631Z,15.90
2018-11-26T16:18:10.352Z,14.73
2018-11-26T16:20:39.457Z,13.70
2018-11-26T16:23:09.781Z,14.07
2018-11-26T16:25:42.265Z,13.90
2018-11-26T16:28:16.301Z,14.17
2018-11-26T16:30:45.631Z,13.60
2018-11-26T16:33:15.800Z,14.93
2018-11-26T16:35:44.917Z,15.83
2018-11-26T16:38:14.627Z,15.13
2018-11-26T16:40:43.809Z,14.93
2018-11-26T16:43:12.970Z,16.83
2018-11-26T16:45:41.957Z,17.13
2018-11-26T16:48:11.217Z,16.00
2018-11-26T16:50:40.454Z,15.77
2018-11-26T16:53:09.586Z,15.27
2018-11-26T16:55:38.758Z,14.63
2018-11-26T16:58:07.848Z,15.70
2018-11-26T17:00:37.104Z,15.80
2018-11-26T17:03:09.120Z,14.67
2018-11-26T17:05:40.578Z,14.37
2018-11-26T17:08:11.991Z,14.83
2018-11-26T17:10:41.337Z,14.63
2018-11-26T17:13:11.531Z,15.63
2018-11-26T17:15:40.953Z,16.50
2018-11-26T17:18:10.002Z,14.23
2018-11-26T17:20:39.153Z,15.07
2018-11-26T17:23:08.468Z,15.43
2018-11-26T17:25:37.534Z,15.53
2018-11-26T17:28:08.061Z,15.40
2018-11-26T17:30:38.538Z,15.30
2018-11-26T17:33:09.467Z,15.30
2018-11-26T17:35:38.512Z,15.33
2018-11-26T17:38:07.733Z,17.10
2018-11-26T17:40:37.421Z,26.17
2018-11-26T17:43:07.826Z,16.53
2018-11-26T17:45:36.903Z,14.73
2018-11-26T17:48:06.727Z,14.20
2018-11-26T17:50:37.310Z,15.90
2018-11-26T17:53:09.198Z,14.70
2018-11-26T17:55:44.661Z,16.33
2018-11-26T17:58:13.710Z,15.50
2018-11-26T18:00:43.189Z,16.83
2018-11-26T18:03:18.593Z,15.97
2018-11-26T18:05:47.648Z,14.77
2018-11-26T18:08:18.391Z,14.97
2018-11-26T18:10:47.793Z,16.07
2018-11-26T18:13:16.843Z,16.50
2018-11-26T18:15:45.864Z,16.70
2018-11-26T18:18:18.570Z,14.47
2018-11-26T18:20:48.069Z,16.23
2018-11-26T18:23:17.509Z,16.67
2018-11-26T18:25:46.608Z,15.17
2018-11-26T18:28:16.572Z,14.83
2018-11-26T18:30:51.011Z,15.10
2018-11-26T18:33:20.096Z,14.93
2018-11-26T18:35:49.336Z,16.00
2018-11-26T18:38:18.759Z,15.27
2018-11-26T18:40:49.769Z,15.37
2018-11-26T18:43:18.833Z,15.57
2018-11-26T18:45:47.929Z,16.17
2018-11-26T18:48:16.994Z,16.43
2018-11-26T18:50:46.091Z,16.47
2018-11-26T18:53:15.273Z,15.93
2018-11-26T18:55:44.338Z,16.30
2018-11-26T18:58:13.425Z,15.47
2018-11-26T19:00:47.074Z,15.83
2018-11-26T19:03:18.617Z,15.80
2018-11-26T19:05:48.876Z,16.37
2018-11-26T19:08:18.053Z,16.83
2018-11-26T19:10:48.036Z,17.77
2018-11-26T19:13:19.161Z,16.97
2018-11-26T19:15:49.444Z,17.20
2018-11-26T19:18:23.985Z,17.07
2018-11-26T19:20:53.351Z,17.50
2018-11-26T19:23:22.903Z,16.50
2018-11-26T19:25:53.145Z,17.87
2018-11-26T19:28:22.203Z,16.60
2018-11-26T19:30:51.595Z,17.30
2018-11-26T19:33:22.497Z,17.33
2018-11-26T19:35:51.737Z,16.50
2018-11-26T19:38:20.757Z,17.53
2018-11-26T19:40:49.908Z,18.90
2018-11-26T19:43:18.972Z,19.10
2018-11-26T19:45:49.272Z,18.33
2018-11-26T19:48:18.384Z,24.10
2018-11-26T19:50:47.430Z,24.40
2018-11-26T19:53:16.518Z,22.57
2018-11-26T19:55:45.579Z,18.83
2018-11-26T19:58:14.630Z,19.80
2018-11-26T20:00:43.645Z,19.37
2018-11-26T20:03:20.269Z,19.23
2018-11-26T20:06:02.005Z,23.27
2018-11-26T20:08:31.289Z,20.97
2018-11-26T20:11:00.350Z,19.10
2018-11-26T20:13:29.402Z,20.87
2018-11-26T20:15:58.491Z,20.07
2018-11-26T20:18:28.631Z,20.50
2018-11-26T20:20:56.957Z,22.13
2018-11-26T20:23:26.018Z,20.37
2018-11-26T20:25:55.079Z,20.47
2018-11-26T20:28:24.131Z,21.00
2018-11-26T20:30:53.209Z,22.93
2018-11-26T20:33:22.285Z,22.27
2018-11-26T20:35:51.901Z,20.37
2018-11-26T20:38:22.270Z,20.70
2018-11-26T20:40:51.792Z,22.73
2018-11-26T20:43:20.834Z,20.90
2018-11-26T20:45:50.477Z,22.00
2018-11-26T20:48:19.581Z,20.73
2018-11-26T20:50:50.824Z,21.30
2018-11-26T20:53:22.095Z,22.60
2018-11-26T20:55:51.186Z,23.00
2018-11-26T20:58:20.228Z,22.10
2018-11-26T21:00:49.368Z,22.00
2018-11-26T21:03:18.467Z,22.43
2018-11-26T21:05:47.879Z,21.40
2018-11-26T21:08:17.385Z,22.17
2018-11-26T21:10:47.458Z,21.97
2018-11-26T21:13:17.155Z,21.77
2018-11-26T21:15:46.783Z,22.87
2018-11-26T21:18:15.922Z,20.77
2018-11-26T21:20:49.126Z,21.37
2018-11-26T21:23:30.048Z,21.70
2018-11-26T21:26:01.110Z,21.53
2018-11-26T21:28:30.153Z,22.00
2018-11-26T21:31:00.471Z,23.53
2018-11-26T21:33:31.415Z,22.47
2018-11-26T21:36:00.606Z,22.23
2018-11-26T21:38:29.981Z,21.43
2018-11-26T21:41:00.761Z,21.87
2018-11-26T21:43:29.827Z,22.63
2018-11-26T21:46:00.195Z,22.07
2018-11-26T21:48:29.259Z,23.40
2018-11-26T21:51:00.841Z,22.13
2018-11-26T21:53:29.848Z,19.00
2018-11-26T21:55:58.913Z,21.40
2018-11-26T21:58:27.949Z,21.00
2018-11-26T22:00:58.113Z,20.70
2018-11-26T22:03:30.572Z,19.67
2018-11-26T22:05:56.319Z,19.57
2018-11-26T22:08:25.396Z,20.13
2018-11-26T22:10:54.518Z,19.57
2018-11-26T22:13:23.589Z,18.90
2018-11-26T22:15:52.647Z,19.53
2018-11-26T22:18:22.696Z,19.63
2018-11-26T22:20:51.956Z,18.50
2018-11-26T22:23:21.029Z,18.80
2018-11-26T22:25:50.219Z,18.13
2018-11-26T22:28:19.210Z,18.03
2018-11-26T22:30:48.402Z,18.67
2018-11-26T22:33:17.515Z,18.07
2018-11-26T22:35:46.594Z,18.53
2018-11-26T22:38:15.720Z,17.90
2018-11-26T22:40:44.791Z,17.43
2018-11-26T22:43:13.824Z,17.20
2018-11-26T22:45:42.881Z,16.53
2018-11-26T22:48:12.983Z,17.30
2018-11-26T22:50:44.545Z,17.57
2018-11-26T22:53:14.124Z,17.43
2018-11-26T22:55:44.304Z,17.30
2018-11-26T22:58:14.250Z,17.63
2018-11-26T23:00:45.998Z,15.57
2018-11-26T23:03:17.234Z,16.00
2018-11-26T23:05:46.294Z,14.63
2018-11-26T23:08:15.311Z,15.40
2018-11-26T23:10:44.388Z,15.63
2018-11-26T23:13:13.437Z,16.17
2018-11-26T23:15:42.476Z,16.10
2018-11-26T23:18:11.543Z,14.43
2018-11-26T23:20:40.597Z,13.50
2018-11-26T23:23:09.742Z,13.63
2018-11-26T23:25:39.114Z,12.27
2018-11-26T23:28:08.264Z,11.63
2018-11-26T23:30:37.322Z,11.20
2018-11-26T23:33:07.970Z,10.57
2018-11-26T23:35:37.045Z,10.73
2018-11-26T23:38:06.609Z,11.17
2018-11-26T23:40:36.246Z,11.50
2018-11-26T23:43:06.189Z,12.60
2018-11-26T23:45:35.600Z,10.20
2018-11-26T23:48:05.137Z,11.17
2018-11-26T23:50:34.627Z,11.20
2018-11-26T23:53:04.655Z,11.07
2018-11-26T23:55:33.739Z,11.67
2018-11-26T23:58:02.780Z,10.93
